Time;durP1;ratioP1;P1;durP2;ratioP2;P2;SDS_P1;SDS_P2;PMS_P1;PMS_P2;Temp;Humidity;BMP_temperature;BMP_pressure;BME280_temperature;BME280_humidity;BME280_pressure;Samples;Min_cycle;Max_cycle;Signal;HPM_P1;HPM_P2
2024/01/09 00:00:30;;;;;;;;;;;;;;;24.78;37.44;94380.34;5022998;28;7318;-40
2024/01/09 00:02:59;;;;;;;;;;;;;;;24.76;37.17;94379.34;5019858;28;7759;-40
2024/01/09 00:05:25;;;;;;;;;;;;;;;24.78;36.62;94383.09;5011702;28;7050;-39
2024/01/09 00:07:53;;;;;;;;;;;;;;;24.78;37.06;94382.34;5048817;28;9021;-40
2024/01/09 00:10:19;;;;;;;;;;;;;;;24.79;36.38;94389.34;5010351;28;7490;-40
2024/01/09 00:12:45;;;;;;;;;;;;;;;24.78;36.92;94382.34;5016245;28;9169;-40
2024/01/09 00:15:13;;;;;;;;;;;;;;;24.77;37.29;94381.63;5022214;28;7386;-40
2024/01/09 00:17:41;;;;;;;;;;;;;;;24.76;37.20;94377.38;5010509;28;7220;-40
2024/01/09 00:20:11;;;;;;;;;;;;;;;24.76;36.28;94376.59;5039612;28;7164;-40
2024/01/09 00:22:37;;;;;;;;;;;;;;;24.76;37.29;94376.59;5034946;28;9078;-39
2024/01/09 00:25:06;;;;;;;;;;;;;;;24.77;36.74;94380.88;5018465;28;6974;-39
2024/01/09 00:27:32;;;;;;;;;;;;;;;24.75;37.05;94375.13;5003219;28;7171;-39
2024/01/09 00:30:00;;;;;;;;;;;;;;;24.75;37.45;94378.59;5030808;28;7187;-54
2024/01/09 00:32:27;;;;;;;;;;;;;;;24.73;37.16;94375.56;5027368;28;8721;-55
2024/01/09 00:34:55;;;;;;;;;;;;;;;24.73;36.50;94376.34;5013998;28;8865;-54
2024/01/09 00:37:22;;;;;;;;;;;;;;;24.75;36.81;94384.09;5016705;28;9368;-53
2024/01/09 00:39:52;;;;;;;;;;;;;;;24.77;37.02;94383.63;5015599;28;9151;-55
2024/01/09 00:42:24;;;;;;;;;;;;;;;24.77;36.97;94386.38;5025647;28;7102;-55
2024/01/09 00:44:50;;;;;;;;;;;;;;;24.75;36.78;94380.63;5014981;28;7524;-56
2024/01/09 00:47:16;;;;;;;;;;;;;;;24.75;37.27;94378.59;5020583;28;9065;-54
2024/01/09 00:49:46;;;;;;;;;;;;;;;24.74;36.74;94379.84;5025033;28;7080;-54
2024/01/09 00:52:12;;;;;;;;;;;;;;;24.74;37.10;94385.34;5014922;28;7480;-55
2024/01/09 00:54:45;;;;;;;;;;;;;;;24.73;37.51;94377.59;5035339;28;7461;-54
2024/01/09 00:57:12;;;;;;;;;;;;;;;24.73;37.40;94387.34;5011816;28;9093;-55
2024/01/09 00:59:38;;;;;;;;;;;;;;;24.74;37.29;94382.59;5029291;28;6956;-55
2024/01/09 01:02:08;;;;;;;;;;;;;;;24.72;36.51;94385.09;5025879;28;9009;-54
2024/01/09 01:04:38;;;;;;;;;;;;;;;24.73;37.31;94396.84;5017198;28;7113;-54
2024/01/09 01:07:11;;;;;;;;;;;;;;;24.74;36.74;94388.09;5019063;28;9116;-56
2024/01/09 01:09:40;;;;;;;;;;;;;;;24.75;36.83;94391.63;5031023;28;7270;-55
2024/01/09 01:12:12;;;;;;;;;;;;;;;24.69;37.10;94392.34;5013155;28;7049;-55
2024/01/09 01:14:39;;;;;;;;;;;;;;;24.73;36.59;94400.34;5032884;28;7975;-55
2024/01/09 01:17:04;;;;;;;;;;;;;;;24.68;36.51;94399.09;5018201;28;7180;-55
2024/01/09 01:19:40;;;;;;;;;;;;;;;24.71;36.79;94406.34;5018265;28;7426;-52
2024/01/09 01:22:08;;;;;;;;;;;;;;;24.71;37.35;94406.34;5041305;28;7334;-55
2024/01/09 01:24:37;;;;;;;;;;;;;;;24.70;36.86;94404.88;5031908;28;8737;-52
2024/01/09 01:27:04;;;;;;;;;;;;;;;24.73;36.70;94402.34;5017750;28;7421;-54
2024/01/09 01:29:36;;;;;;;;;;;;;;;24.71;36.42;94406.34;5023542;28;7160;-54
2024/01/09 01:32:02;;;;;;;;;;;;;;;24.71;36.42;94397.34;5016026;28;7123;-54
2024/01/09 01:34:39;;;;;;;;;;;;;;;24.69;36.48;94402.59;5011405;28;8851;-53
2024/01/09 01:37:05;;;;;;;;;;;;;;;24.72;36.59;94409.84;5013963;28;8774;-55
2024/01/09 01:39:33;;;;;;;;;;;;;;;24.72;36.99;94407.09;5033489;28;7236;-42
2024/01/09 01:41:59;;;;;;;;;;;;;;;24.70;36.83;94406.88;5002216;28;7076;-40
2024/01/09 01:44:37;;;;;;;;;;;;;;;24.70;36.81;94413.13;5028446;28;9065;-40
2024/01/09 01:47:05;;;;;;;;;;;;;;;24.73;36.34;94413.34;5014427;28;7401;-39
2024/01/09 01:49:33;;;;;;;;;;;;;;;24.73;36.78;94413.34;5011927;28;8456;-40
2024/01/09 01:52:03;;;;;;;;;;;;;;;24.75;36.23;94410.88;5041317;28;9080;-41
2024/01/09 01:54:33;;;;;;;;;;;;;;;24.73;36.27;94417.59;5005187;28;7211;-41
2024/01/09 01:57:02;;;;;;;;;;;;;;;24.71;36.81;94408.34;5032133;28;7208;-40
2024/01/09 01:59:34;;;;;;;;;;;;;;;24.72;36.74;94409.84;5014869;28;7028;-39
2024/01/09 02:02:02;;;;;;;;;;;;;;;24.74;36.95;94410.09;5026549;28;7144;-40
2024/01/09 02:04:28;;;;;;;;;;;;;;;24.73;37.05;94413.34;5014365;28;7339;-39
2024/01/09 02:07:04;;;;;;;;;;;;;;;24.73;36.96;94409.34;5017378;28;7128;-40
2024/01/09 02:09:53;;;;;;;;;;;;;;;24.73;37.10;94413.34;5025823;28;8774;-41
2024/01/09 02:12:21;;;;;;;;;;;;;;;24.71;36.68;94406.34;5012501;28;7062;-39
2024/01/09 02:14:58;;;;;;;;;;;;;;;24.72;36.80;94407.09;5036130;28;6996;-41
2024/01/09 02:18:05;;;;;;;;;;;;;;;24.71;36.34;94406.34;5030009;28;9011;-40
2024/01/09 02:21:10;;;;;;;;;;;;;;;24.71;36.34;94406.34;4948070;28;9193;-40
2024/01/09 02:24:01;;;;;;;;;;;;;;;24.71;37.01;94405.59;4891767;29;7210;-40
2024/01/09 02:26:34;;;;;;;;;;;;;;;24.71;36.72;94402.84;4921829;29;7921;-40
2024/01/09 02:29:08;;;;;;;;;;;;;;;24.72;36.60;94407.09;4904692;29;9847;-40
2024/01/09 02:31:46;;;;;;;;;;;;;;;24.71;36.80;94400.84;4914126;29;7046;-40
2024/01/09 02:34:24;;;;;;;;;;;;;;;24.72;37.11;94407.09;4883012;29;7564;-40
2024/01/09 02:37:34;;;;;;;;;;;;;;;24.71;36.99;94406.34;4892756;29;8903;-41
2024/01/09 02:40:33;;;;;;;;;;;;;;;24.73;36.30;94407.88;4911579;29;9078;-41
2024/01/09 02:43:23;;;;;;;;;;;;;;;24.71;37.07;94400.09;4911062;29;9364;-41
2024/01/09 02:46:06;;;;;;;;;;;;;;;24.70;36.53;94399.38;4911911;29;9074;-40
2024/01/09 02:48:34;;;;;;;;;;;;;;;24.70;37.05;94395.88;4923782;29;6988;-37
2024/01/09 02:51:13;;;;;;;;;;;;;;;24.71;37.01;94402.84;4938033;28;9489;-37
2024/01/09 02:53:39;;;;;;;;;;;;;;;24.73;36.43;94399.59;4991469;28;7247;-37
2024/01/09 02:56:14;;;;;;;;;;;;;;;24.73;36.09;94407.88;5023812;28;8815;-37
2024/01/09 02:58:47;;;;;;;;;;;;;;;24.68;36.74;94401.84;5011562;28;9179;-37
2024/01/09 03:01:16;;;;;;;;;;;;;;;24.67;36.28;94403.13;5039742;28;7452;-37
2024/01/09 03:03:58;;;;;;;;;;;;;;;24.70;36.96;94406.88;5018076;28;7210;-37
2024/01/09 03:06:41;;;;;;;;;;;;;;;24.68;36.85;94404.59;5038299;28;7261;-37
2024/01/09 03:09:16;;;;;;;;;;;;;;;24.69;36.18;94408.09;5017553;28;9103;-37
2024/01/09 03:11:49;;;;;;;;;;;;;;;24.68;36.21;94401.84;5016742;28;9139;-37
2024/01/09 03:14:16;;;;;;;;;;;;;;;24.69;36.62;94408.09;5034688;28;10140;-37
2024/01/09 03:16:47;;;;;;;;;;;;;;;24.70;36.77;94406.88;5027623;28;7077;-37
2024/01/09 03:19:26;;;;;;;;;;;;;;;24.68;36.45;94396.34;5023354;28;7775;-37
2024/01/09 03:21:56;;;;;;;;;;;;;;;24.71;36.95;94402.84;5040265;28;7507;-37
2024/01/09 03:24:22;;;;;;;;;;;;;;;24.71;36.72;94406.34;5012251;28;9233;-37
2024/01/09 03:26:49;;;;;;;;;;;;;;;24.73;36.84;94401.09;5021846;28;7447;-37
2024/01/09 03:29:20;;;;;;;;;;;;;;;24.73;36.97;94397.59;5021146;28;9185;-37
2024/01/09 03:31:46;;;;;;;;;;;;;;;24.71;36.46;94400.84;5007649;28;8635;-37
2024/01/09 03:34:12;;;;;;;;;;;;;;;24.70;36.15;94399.38;5035537;28;9061;-37
2024/01/09 03:36:41;;;;;;;;;;;;;;;24.71;36.72;94400.84;5030232;28;7061;-37
2024/01/09 03:39:10;;;;;;;;;;;;;;;24.71;36.84;94406.34;5016344;28;9345;-37
2024/01/09 03:41:36;;;;;;;;;;;;;;;24.73;37.02;94407.88;5011804;28;9509;-37
2024/01/09 03:44:02;;;;;;;;;;;;;;;24.71;36.97;94405.59;5016898;28;7264;-37
2024/01/09 03:46:36;;;;;;;;;;;;;;;24.73;36.62;94401.09;5029052;28;7183;-38
2024/01/09 03:49:02;;;;;;;;;;;;;;;24.73;36.90;94405.84;5032140;28;7201;-37
2024/01/09 03:51:32;;;;;;;;;;;;;;;24.70;36.17;94404.13;5030231;28;7248;-37
2024/01/09 03:54:06;;;;;;;;;;;;;;;24.71;36.10;94406.34;5018401;28;9069;-37
2024/01/09 03:56:33;;;;;;;;;;;;;;;24.71;36.04;94406.34;5019216;28;8791;-37
2024/01/09 03:59:00;;;;;;;;;;;;;;;24.71;36.23;94419.34;5028095;28;8140;-40
2024/01/09 04:01:40;;;;;;;;;;;;;;;24.72;36.25;94412.59;5031161;28;9780;-40
2024/01/09 04:04:06;;;;;;;;;;;;;;;24.72;36.20;94412.59;5018367;28;9067;-40
2024/01/09 04:06:45;;;;;;;;;;;;;;;24.71;36.92;94414.59;5001667;28;7899;-40
2024/01/09 04:09:17;;;;;;;;;;;;;;;24.70;36.99;94415.88;5016941;28;7171;-40
2024/01/09 04:11:45;;;;;;;;;;;;;;;24.71;36.75;94413.84;5047840;28;6998;-40
2024/01/09 04:14:12;;;;;;;;;;;;;;;24.70;36.29;94407.63;5017404;28;9420;-41
2024/01/09 04:16:44;;;;;;;;;;;;;;;24.70;36.65;94404.88;5016688;28;9048;-42
2024/01/09 04:19:11;;;;;;;;;;;;;;;24.71;36.69;94405.59;5022739;28;7409;-41
2024/01/09 04:21:37;;;;;;;;;;;;;;;24.70;36.52;94402.13;5010163;28;9078;-40
2024/01/09 04:24:03;;;;;;;;;;;;;;;24.71;36.39;94402.84;5041247;28;7747;-41
2024/01/09 04:26:30;;;;;;;;;;;;;;;24.71;36.88;94405.59;5028596;28;7058;-40
2024/01/09 04:28:58;;;;;;;;;;;;;;;24.69;35.91;94408.84;5019352;28;7319;-40
2024/01/09 04:31:24;;;;;;;;;;;;;;;24.69;36.29;94400.59;5016006;28;9068;-40
2024/01/09 04:33:52;;;;;;;;;;;;;;;24.71;35.96;94408.34;5022224;28;8800;-41
2024/01/09 04:36:23;;;;;;;;;;;;;;;24.70;36.00;94406.88;5013114;28;9165;-40
2024/01/09 04:38:49;;;;;;;;;;;;;;;24.70;36.03;94404.13;5014741;28;8772;-40
2024/01/09 04:41:16;;;;;;;;;;;;;;;24.70;36.84;94404.13;5034209;28;7288;-40
2024/01/09 04:43:44;;;;;;;;;;;;;;;24.70;36.96;94413.13;5014189;28;9350;-41
2024/01/09 04:46:16;;;;;;;;;;;;;;;24.67;36.18;94403.13;5017619;28;9483;-40
2024/01/09 04:48:44;;;;;;;;;;;;;;;24.71;36.74;94400.84;5028126;28;7306;-40
2024/01/09 04:51:10;;;;;;;;;;;;;;;24.73;36.98;94407.88;5024935;28;7237;-40
2024/01/09 04:53:48;;;;;;;;;;;;;;;24.73;36.11;94410.59;5015671;28;7017;-40
2024/01/09 04:56:20;;;;;;;;;;;;;;;24.71;36.33;94406.34;5025770;28;9260;-41
2024/01/09 04:59:15;;;;;;;;;;;;;;;24.71;36.89;94409.09;5032917;28;9426;-41
2024/01/09 05:01:41;;;;;;;;;;;;;;;24.73;36.18;94413.34;4952806;28;7280;-41
2024/01/09 05:04:07;;;;;;;;;;;;;;;24.73;35.79;94410.59;4937338;28;9041;-42
2024/01/09 05:06:33;;;;;;;;;;;;;;;24.70;36.65;94401.38;4926462;28;7022;-40
2024/01/09 05:08:59;;;;;;;;;;;;;;;24.70;35.96;94409.63;4937395;28;7054;-58
2024/01/09 05:11:25;;;;;;;;;;;;;;;24.68;36.03;94403.88;4942943;28;7422;-58
2024/01/09 05:13:56;;;;;;;;;;;;;;;24.69;36.56;94397.84;4952181;28;7047;-58
2024/01/09 05:16:24;;;;;;;;;;;;;;;24.67;36.14;94408.63;4942230;28;9131;-58
2024/01/09 05:18:54;;;;;;;;;;;;;;;24.71;36.56;94411.84;4956254;28;7261;-58
2024/01/09 05:21:24;;;;;;;;;;;;;;;24.70;36.10;94404.13;4957309;28;9082;-58
2024/01/09 05:23:50;;;;;;;;;;;;;;;24.69;36.37;94402.59;4956825;28;9479;-59
2024/01/09 05:26:18;;;;;;;;;;;;;;;24.70;36.72;94404.88;4953249;28;9066;-58
2024/01/09 05:28:49;;;;;;;;;;;;;;;24.69;36.17;94403.34;4941175;29;9025;-58
2024/01/09 05:31:15;;;;;;;;;;;;;;;24.69;36.62;94402.59;4957502;28;8233;-58
2024/01/09 05:33:41;;;;;;;;;;;;;;;24.70;36.54;94404.88;4945178;28;9067;-59
2024/01/09 05:36:08;;;;;;;;;;;;;;;24.70;36.61;94404.88;4939934;28;9139;-58
2024/01/09 05:38:36;;;;;;;;;;;;;;;24.70;36.24;94407.63;4994715;28;7287;-58
2024/01/09 05:41:02;;;;;;;;;;;;;;;24.70;36.16;94410.38;5027915;28;7200;-58
2024/01/09 05:43:41;;;;;;;;;;;;;;;24.70;35.87;94406.88;5010027;28;9434;-59
2024/01/09 05:46:09;;;;;;;;;;;;;;;24.69;36.16;94405.34;5023654;28;7076;-59
2024/01/09 05:48:48;;;;;;;;;;;;;;;24.69;36.51;94408.84;5041375;28;7519;-58
2024/01/09 05:51:17;;;;;;;;;;;;;;;24.68;36.37;94412.84;5017864;28;7308;-59
2024/01/09 05:53:50;;;;;;;;;;;;;;;24.67;36.43;94411.38;5018957;28;7261;-58
2024/01/09 05:56:16;;;;;;;;;;;;;;;24.70;36.43;94407.63;5014916;28;9209;-58
2024/01/09 05:58:44;;;;;;;;;;;;;;;24.69;36.07;94408.84;5018938;28;8693;-58
2024/01/09 06:01:11;;;;;;;;;;;;;;;24.68;36.51;94406.63;5030787;28;7616;-59
2024/01/09 06:03:38;;;;;;;;;;;;;;;24.73;37.13;94416.84;5037628;28;9175;-57
2024/01/09 06:06:04;;;;;;;;;;;;;;;24.82;36.59;94411.09;5021130;28;9533;-58
2024/01/09 06:08:34;;;;;;;;;;;;;;;24.82;35.83;94411.09;5016046;28;7202;-58
2024/01/09 06:11:13;;;;;;;;;;;;;;;24.80;35.78;94418.34;5020074;28;7247;-58
2024/01/09 06:13:39;;;;;;;;;;;;;;;24.79;36.30;94416.88;5034739;28;9063;-58
2024/01/09 06:16:12;;;;;;;;;;;;;;;24.79;36.55;94419.63;5029836;28;7005;-58
2024/01/09 06:18:41;;;;;;;;;;;;;;;24.76;36.87;94412.38;5004099;28;9053;-36
2024/01/09 06:21:13;;;;;;;;;;;;;;;24.75;36.06;94413.63;5015652;28;9496;-36
2024/01/09 06:23:47;;;;;;;;;;;;;;;24.79;36.73;94422.38;5009035;28;6987;-36
2024/01/09 06:26:14;;;;;;;;;;;;;;;24.83;36.37;94426.34;5050426;28;7137;-36
2024/01/09 06:28:49;;;;;;;;;;;;;;;24.89;36.54;94418.84;5015967;28;9026;-36
2024/01/09 06:31:15;;;;;;;;;;;;;;;24.92;35.89;94419.81;5017436;28;9065;-36
2024/01/09 06:33:43;;;;;;;;;;;;;;;24.88;34.29;94413.84;5011292;28;7021;-36
2024/01/09 06:36:10;;;;;;;;;;;;;;;24.81;34.57;94420.63;5052690;28;7273;-36
2024/01/09 06:39:04;;;;;;;;;;;;;;;24.78;34.79;94423.59;5037163;28;7066;-37
2024/01/09 06:41:43;;;;;;;;;;;;;;;24.77;35.38;94419.38;4936033;29;7886;-37
2024/01/09 06:44:23;;;;;;;;;;;;;;;24.78;34.23;94423.59;4917741;29;9450;-37
2024/01/09 06:46:51;;;;;;;;;;;;;;;24.72;34.49;94409.84;4936676;29;9045;-37
2024/01/09 06:49:44;;;;;;;;;;;;;;;24.73;35.48;94422.34;4936351;28;6999;-37
2024/01/09 06:52:12;;;;;;;;;;;;;;;24.68;35.13;94423.84;4928726;29;7278;-37
2024/01/09 06:54:57;;;;;;;;;;;;;;;24.69;35.17;94436.38;4919838;29;10020;-37
2024/01/09 06:58:16;;;;;;;;;;;;;;;24.69;34.80;94425.34;4921017;29;9492;-37
2024/01/09 07:01:13;;;;;;;;;;;;;;;24.70;35.23;94426.88;4898514;29;7550;-37
2024/01/09 07:03:49;;;;;;;;;;;;;;;24.68;35.15;94425.88;4875478;29;7258;-37
2024/01/09 07:06:17;;;;;;;;;;;;;;;24.68;35.23;94429.34;4862387;29;7983;-37
2024/01/09 07:08:58;;;;;;;;;;;;;;;24.67;35.62;94433.38;4879419;29;8047;-37
2024/01/09 07:11:24;;;;;;;;;;;;;;;24.65;35.99;94441.38;4878103;29;7054;-37
2024/01/09 07:13:50;;;;;;;;;;;;;;;24.62;35.11;94445.13;4876489;29;7941;-37
2024/01/09 07:16:27;;;;;;;;;;;;;;;24.63;36.09;94449.38;4878327;29;9072;-37
2024/01/09 07:19:13;;;;;;;;;;;;;;;24.65;35.33;94446.13;4897669;29;7002;-37
2024/01/09 07:21:50;;;;;;;;;;;;;;;24.64;35.95;94448.13;4898397;29;7006;-37
2024/01/09 07:24:19;;;;;;;;;;;;;;;24.63;35.55;94448.63;4899114;29;9167;-37
2024/01/09 07:26:46;;;;;;;;;;;;;;;24.64;36.31;94450.88;4902519;29;9136;-37
2024/01/09 07:29:44;;;;;;;;;;;;;;;24.64;36.44;94448.13;4891967;29;7504;-37
2024/01/09 07:32:10;;;;;;;;;;;;;;;24.63;35.77;94460.38;4897674;29;7094;-37
2024/01/09 07:34:37;;;;;;;;;;;;;;;24.58;36.36;94446.63;4898005;29;9571;-37
2024/01/09 07:37:04;;;;;;;;;;;;;;;24.62;35.83;94447.16;4953878;28;7321;-37
2024/01/09 07:39:35;;;;;;;;;;;;;;;24.62;36.42;94452.63;4970394;28;7039;-37
2024/01/09 07:42:01;;;;;;;;;;;;;;;24.62;36.71;94460.91;5028704;28;8431;-37
2024/01/09 07:44:35;;;;;;;;;;;;;;;24.63;36.15;94457.63;5006987;28;8846;-37
2024/01/09 07:47:01;;;;;;;;;;;;;;;24.63;36.47;94454.88;5011245;28;6983;-37
2024/01/09 07:49:27;;;;;;;;;;;;;;;24.70;36.53;94470.13;5023291;28;9079;-37
2024/01/09 07:51:53;;;;;;;;;;;;;;;24.69;35.49;94469.38;5014613;28;7203;-38
2024/01/09 07:54:18;;;;;;;;;;;;;;;24.53;30.35;94461.16;5011069;28;7637;-38
2024/01/09 07:56:44;;;;;;;;;;;;;;;24.37;28.94;94476.41;5021678;28;7183;-37
2024/01/09 07:59:19;;;;;;;;;;;;;;;24.29;26.62;94480.16;5019929;28;8848;-37
2024/01/09 08:01:54;;;;;;;;;;;;;;;24.20;26.55;94475.66;5030467;28;8915;-37
2024/01/09 08:04:22;;;;;;;;;;;;;;;24.21;25.90;94473.63;5028355;28;9078;-37
2024/01/09 08:06:50;;;;;;;;;;;;;;;24.21;26.26;94468.91;5018732;28;9480;-37
2024/01/09 08:09:19;;;;;;;;;;;;;;;24.30;26.28;94478.91;5017762;28;9022;-37
2024/01/09 08:11:48;;;;;;;;;;;;;;;24.35;26.85;94478.91;5014080;28;7297;-37
2024/01/09 08:14:15;;;;;;;;;;;;;;;24.39;26.97;94478.66;5043388;28;9077;-37
2024/01/09 08:16:41;;;;;;;;;;;;;;;24.44;27.16;94477.91;5016470;28;7603;-37
2024/01/09 08:19:11;;;;;;;;;;;;;;;24.46;27.86;94478.91;5026241;28;8769;-37
2024/01/09 08:21:37;;;;;;;;;;;;;;;24.46;26.69;94478.91;5014846;28;7159;-37
2024/01/09 08:24:05;;;;;;;;;;;;;;;24.49;27.12;94477.88;5026997;28;7296;-37
2024/01/09 08:26:34;;;;;;;;;;;;;;;24.52;27.90;94481.63;5012608;28;7239;-37
2024/01/09 08:29:02;;;;;;;;;;;;;;;24.54;28.15;94479.88;5017518;28;7312;-37
2024/01/09 08:31:30;;;;;;;;;;;;;;;24.57;27.29;94475.38;5017428;28;7654;-37
2024/01/09 08:34:02;;;;;;;;;;;;;;;24.54;27.57;94479.13;5017532;28;7263;-37
2024/01/09 08:36:30;;;;;;;;;;;;;;;24.51;27.87;94486.38;5016864;28;9077;-37
2024/01/09 08:38:56;;;;;;;;;;;;;;;24.52;28.42;94487.88;5014737;28;7986;-37
2024/01/09 08:41:23;;;;;;;;;;;;;;;24.53;28.29;94494.16;5017524;28;7289;-37
2024/01/09 08:43:50;;;;;;;;;;;;;;;24.54;28.46;94485.38;5001849;28;7245;-37
2024/01/09 08:46:20;;;;;;;;;;;;;;;24.57;28.59;94483.63;5010786;28;7138;-37
2024/01/09 08:48:55;;;;;;;;;;;;;;;24.59;29.70;94487.38;5005667;28;7120;-37
2024/01/09 08:51:28;;;;;;;;;;;;;;;24.61;28.96;94490.38;5002222;28;7562;-37
2024/01/09 08:54:24;;;;;;;;;;;;;;;24.63;29.40;94481.63;5044684;28;7142;-37
2024/01/09 08:57:21;;;;;;;;;;;;;;;24.67;29.35;94493.13;4940135;28;7257;-37
2024/01/09 09:00:24;;;;;;;;;;;;;;;24.68;29.09;94498.09;4868583;29;8898;-37
2024/01/09 09:03:18;;;;;;;;;;;;;;;24.73;30.27;94495.88;4866870;29;7271;-38
2024/01/09 09:05:44;;;;;;;;;;;;;;;24.69;30.58;94494.13;4855658;29;7168;-37
2024/01/09 09:08:42;;;;;;;;;;;;;;;24.70;30.27;94503.13;4848209;29;9134;-37
2024/01/09 09:11:38;;;;;;;;;;;;;;;24.70;30.20;94497.63;4800986;29;9152;-38
2024/01/09 09:14:06;;;;;;;;;;;;;;;24.76;30.09;94494.88;4772712;30;7751;-37
2024/01/09 09:17:18;;;;;;;;;;;;;;;24.77;30.43;94496.41;5044861;28;7008;-36
2024/01/09 09:19:46;;;;;;;;;;;;;;;24.77;31.05;94490.91;5044654;28;7161;-36
2024/01/09 09:22:13;;;;;;;;;;;;;;;24.75;31.23;94490.66;5024823;28;9325;-36
2024/01/09 09:24:39;;;;;;;;;;;;;;;24.73;31.21;94487.63;5025791;28;9066;-36
2024/01/09 09:27:05;;;;;;;;;;;;;;;24.77;31.34;94497.16;5024760;28;7382;-36
2024/01/09 09:29:31;;;;;;;;;;;;;;;24.79;31.64;94491.91;5025250;28;7325;-36
2024/01/09 09:31:57;;;;;;;;;;;;;;;24.80;30.93;94490.63;5019598;28;9153;-36
2024/01/09 09:34:33;;;;;;;;;;;;;;;24.84;31.31;94506.91;5016671;28;9090;-36
2024/01/09 09:37:00;;;;;;;;;;;;;;;24.81;31.33;94491.38;5022794;28;9167;-36
2024/01/09 09:39:36;;;;;;;;;;;;;;;24.82;31.44;94498.38;5030121;28;9335;-36
2024/01/09 09:42:02;;;;;;;;;;;;;;;24.81;31.71;94502.38;5025248;28;7263;-36
2024/01/09 09:44:28;;;;;;;;;;;;;;;24.84;31.41;94506.91;5040112;28;7908;-36
2024/01/09 09:46:58;;;;;;;;;;;;;;;24.82;31.67;94495.63;5040305;28;9019;-36
2024/01/09 09:49:24;;;;;;;;;;;;;;;24.83;31.79;94497.13;5024267;28;6981;-36
2024/01/09 09:51:58;;;;;;;;;;;;;;;24.83;32.12;94505.38;5021062;28;7251;-36
2024/01/09 09:54:31;;;;;;;;;;;;;;;24.81;31.92;94494.13;5028935;28;9021;-36
2024/01/09 09:57:05;;;;;;;;;;;;;;;24.84;32.10;94501.41;5027456;28;7849;-36
2024/01/09 09:59:38;;;;;;;;;;;;;;;24.88;32.04;94499.13;5028449;28;9498;-36
2024/01/09 10:02:07;;;;;;;;;;;;;;;24.88;32.56;94497.09;5020111;28;7129;-36
2024/01/09 10:04:51;;;;;;;;;;;;;;;24.86;32.43;94490.63;5035704;28;7094;-36
2024/01/09 10:07:24;;;;;;;;;;;;;;;24.84;32.89;94498.63;5043133;28;7265;-36
2024/01/09 10:10:05;;;;;;;;;;;;;;;24.81;32.36;94492.13;5023290;28;7526;-36
2024/01/09 10:12:40;;;;;;;;;;;;;;;24.79;33.07;94489.16;5035076;28;7336;-36
2024/01/09 10:15:12;;;;;;;;;;;;;;;24.77;33.24;94485.38;5017623;28;9283;-36
2024/01/09 10:18:11;;;;;;;;;;;;;;;24.77;33.36;94485.38;5039636;28;7677;-36
2024/01/09 10:20:48;;;;;;;;;;;;;;;24.77;33.37;94488.16;4934913;29;9428;-36
2024/01/09 10:23:25;;;;;;;;;;;;;;;24.75;32.48;94485.16;4919932;29;6989;-36
2024/01/09 10:25:54;;;;;;;;;;;;;;;24.73;32.73;94477.34;4938788;29;9622;-36
2024/01/09 10:28:22;;;;;;;;;;;;;;;24.73;33.14;94486.34;4905029;29;7279;-36
2024/01/09 10:30:53;;;;;;;;;;;;;;;24.71;33.08;94486.13;4908703;29;7322;-36
2024/01/09 10:33:19;;;;;;;;;;;;;;;24.73;33.56;94484.88;4913106;29;9340;-36
2024/01/09 10:35:45;;;;;;;;;;;;;;;24.75;33.99;94490.66;4906116;29;9158;-36
2024/01/09 10:38:12;;;;;;;;;;;;;;;24.73;33.74;94483.59;4909439;29;8260;-36
2024/01/09 10:40:38;;;;;;;;;;;;;;;24.79;33.19;94491.13;4913163;29;9100;-36
2024/01/09 10:43:07;;;;;;;;;;;;;;;24.77;34.03;94485.38;4926213;29;7115;-36
2024/01/09 10:45:33;;;;;;;;;;;;;;;24.76;33.17;94479.13;4905087;29;7050;-36
2024/01/09 10:48:09;;;;;;;;;;;;;;;24.73;33.41;94483.59;4914228;29;6972;-36
2024/01/09 10:50:37;;;;;;;;;;;;;;;24.75;33.85;94482.41;4926464;28;8060;-36
2024/01/09 10:53:08;;;;;;;;;;;;;;;24.78;33.36;94486.88;4917635;29;7572;-36
2024/01/09 10:55:38;;;;;;;;;;;;;;;24.76;33.81;94483.88;4946569;28;7571;-36
2024/01/09 10:58:08;;;;;;;;;;;;;;;24.75;34.26;94483.13;5013122;28;7246;-36
2024/01/09 11:00:39;;;;;;;;;;;;;;;24.74;33.47;94487.13;5012775;28;9092;-36
2024/01/09 11:03:08;;;;;;;;;;;;;;;24.75;33.76;94485.88;5013513;28;9269;-35
2024/01/09 11:05:37;;;;;;;;;;;;;;;24.77;33.36;94488.16;5015117;28;6938;-36
2024/01/09 11:08:10;;;;;;;;;;;;;;;24.79;33.76;94485.63;5008014;28;8753;-36
2024/01/09 11:10:38;;;;;;;;;;;;;;;24.79;33.83;94477.38;5012126;28;6989;-36
2024/01/09 11:13:06;;;;;;;;;;;;;;;24.80;33.64;94484.38;5002250;28;7062;-36
2024/01/09 11:15:46;;;;;;;;;;;;;;;24.82;33.70;94476.34;5021986;28;7864;-35
2024/01/09 11:18:17;;;;;;;;;;;;;;;24.84;33.33;94484.88;5023087;28;8920;-35
2024/01/09 11:20:43;;;;;;;;;;;;;;;24.87;33.43;94486.63;5010207;28;7176;-35
2024/01/09 11:23:11;;;;;;;;;;;;;;;24.90;33.68;94483.63;5005731;28;7264;-36
2024/01/09 11:25:37;;;;;;;;;;;;;;;24.95;33.66;94479.34;5008583;28;9112;-36
2024/01/09 11:28:04;;;;;;;;;;;;;;;24.98;32.73;94483.84;5011185;28;7346;-37
2024/01/09 11:30:33;;;;;;;;;;;;;;;24.95;33.47;94479.34;5007985;28;7062;-35
2024/01/09 11:33:31;;;;;;;;;;;;;;;25.00;32.80;94489.59;5027705;28;9159;-36
2024/01/09 11:36:05;;;;;;;;;;;;;;;24.99;33.63;94490.84;5028326;28;9932;-36
2024/01/09 11:38:32;;;;;;;;;;;;;;;24.98;33.63;94486.59;5032772;28;9643;-36
2024/01/09 11:41:09;;;;;;;;;;;;;;;25.00;33.85;94481.31;5027931;28;7243;-36
2024/01/09 11:44:10;;;;;;;;;;;;;;;24.99;32.92;94479.84;5026341;28;9090;-36
2024/01/09 11:46:38;;;;;;;;;;;;;;;24.97;32.83;94496.13;5013785;28;7186;-35
2024/01/09 11:49:06;;;;;;;;;;;;;;;24.97;33.81;94490.59;5026790;28;7265;-35
2024/01/09 11:51:33;;;;;;;;;;;;;;;24.92;33.46;94488.63;5018174;28;8863;-35
2024/01/09 11:54:08;;;;;;;;;;;;;;;24.90;33.52;94485.63;5026579;28;7437;-37
2024/01/09 11:56:36;;;;;;;;;;;;;;;24.90;34.22;94485.63;5010056;28;9104;-37
2024/01/09 11:59:02;;;;;;;;;;;;;;;24.86;33.63;94482.38;5026795;28;7800;-37
2024/01/09 12:01:39;;;;;;;;;;;;;;;24.88;34.21;94496.38;5032209;28;9099;-37
2024/01/09 12:04:13;;;;;;;;;;;;;;;24.92;33.61;94497.63;5011304;28;7283;-37
2024/01/09 12:06:39;;;;;;;;;;;;;;;24.89;33.57;94492.34;5026871;28;7250;-37
2024/01/09 12:09:11;;;;;;;;;;;;;;;24.91;34.45;94498.88;5012750;28;7788;-37
2024/01/09 12:11:43;;;;;;;;;;;;;;;24.93;33.76;94501.84;5013158;28;7246;-37
2024/01/09 12:14:09;;;;;;;;;;;;;;;24.94;33.75;94494.34;5021391;28;7168;-37
2024/01/09 12:16:35;;;;;;;;;;;;;;;24.97;33.88;94507.13;5010415;28;9391;-37
2024/01/09 12:19:01;;;;;;;;;;;;;;;24.99;33.10;94510.13;5012015;28;7070;-37
2024/01/09 12:21:33;;;;;;;;;;;;;;;25.00;34.24;94489.59;5017040;28;9241;-37
2024/01/09 12:24:02;;;;;;;;;;;;;;;25.02;33.25;94500.84;5018320;28;9476;-37
2024/01/09 12:26:36;;;;;;;;;;;;;;;25.01;33.38;94500.06;5021991;28;6990;-37
2024/01/09 12:29:06;;;;;;;;;;;;;;;25.02;33.51;94501.59;5028664;28;9135;-58
2024/01/09 12:31:34;;;;;;;;;;;;;;;25.04;33.93;94506.59;5022819;28;7100;-59
2024/01/09 12:34:03;;;;;;;;;;;;;;;25.05;33.09;94508.09;5011520;28;7199;-59
2024/01/09 12:36:31;;;;;;;;;;;;;;;25.04;33.73;94506.59;5012323;28;8532;-59
2024/01/09 12:39:15;;;;;;;;;;;;;;;25.04;33.30;94510.09;5027954;28;9197;-58
2024/01/09 12:41:53;;;;;;;;;;;;;;;25.02;33.90;94503.59;5029531;28;7348;-60
2024/01/09 12:44:27;;;;;;;;;;;;;;;24.94;33.79;94505.38;5014426;28;9061;-59
2024/01/09 12:46:53;;;;;;;;;;;;;;;24.93;34.03;94506.59;5019963;28;7340;-59
2024/01/09 12:49:51;;;;;;;;;;;;;;;24.94;34.12;94506.13;5016571;28;7229;-59
2024/01/09 12:52:29;;;;;;;;;;;;;;;24.97;33.96;94504.38;5014121;28;8913;-59
2024/01/09 12:55:06;;;;;;;;;;;;;;;25.03;34.24;94502.34;5015905;28;7334;-59
2024/01/09 12:57:55;;;;;;;;;;;;;;;25.03;34.13;94507.84;5031004;28;9137;-59
2024/01/09 13:00:31;;;;;;;;;;;;;;;25.02;33.95;94517.34;5021955;28;9060;-59
2024/01/09 13:03:00;;;;;;;;;;;;;;;25.03;34.27;94516.88;5028194;28;7062;-58
2024/01/09 13:05:39;;;;;;;;;;;;;;;25.04;34.09;94512.09;5020775;28;9349;-59
2024/01/09 13:08:20;;;;;;;;;;;;;;;25.00;34.52;94514.34;5027110;28;8910;-59
2024/01/09 13:11:03;;;;;;;;;;;;;;;25.01;34.47;94516.59;5025749;28;6991;-59
2024/01/09 13:13:49;;;;;;;;;;;;;;;25.00;33.80;94515.09;5031297;28;9090;-59
2024/01/09 13:16:15;;;;;;;;;;;;;;;25.00;35.19;94515.09;5007721;28;9368;-58
2024/01/09 13:18:59;;;;;;;;;;;;;;;25.02;34.70;94517.34;5032022;28;9088;-58
2024/01/09 13:21:26;;;;;;;;;;;;;;;25.02;34.43;94520.09;5009439;28;8729;-58
2024/01/09 13:24:16;;;;;;;;;;;;;;;24.99;34.76;94521.13;5031882;28;9087;-58